Sallum Plateau, Egypt
Current Conditions -  °F | °C
As of 10:00 PM on Thursday 27 Nov 2014 (Local Time) from HEMM Reporting Station
Clear Clear  
Wind Chill: 15°   Ceiling: Unl
Heat Index: 15°   Visibility: 6mi
Dew Point: 12°   Wind: 6mph
Humidity: 82%   Direction: 240°WSW
Pressure: 30.18"   Gusts: NA
Location:  31.57°N, 25.13°E
Report Text: HEMM 272000Z 24005KT CAVOK 15/12 Q1022 NOSIG
Loading
Personal Weather Stations






























Interactive Weather Map New forecast layout! Learn more

10-Day Weather Forecast

Advertisements
Track Severe Weather on mobile